sensor_id;sensor_type;location;lat;lon;timestamp;pressure;altitude;pressure_sealevel;temperature;humidity
41898;BME280;27576;53.366;-1.498;2023-02-12T00:01:08;102343.41;;;7.86;100.00
41898;BME280;27576;53.366;-1.498;2023-02-12T00:03:34;102365.53;;;7.98;100.00
41898;BME280;27576;53.366;-1.498;2023-02-12T00:06:00;102356.88;;;7.97;100.00
41898;BME280;27576;53.366;-1.498;2023-02-12T00:08:26;102350.75;;;7.95;100.00
41898;BME280;27576;53.366;-1.498;2023-02-12T00:10:51;102324.69;;;7.74;100.00
41898;BME280;27576;53.366;-1.498;2023-02-12T00:13:18;102364.47;;;7.94;100.00
41898;BME280;27576;53.366;-1.498;2023-02-12T00:15:43;102337.19;;;7.83;100.00
41898;BME280;27576;53.366;-1.498;2023-02-12T00:18:09;102347.28;;;7.95;100.00
41898;BME280;27576;53.366;-1.498;2023-02-12T00:20:36;102348.06;;;7.94;100.00
41898;BME280;27576;53.366;-1.498;2023-02-12T00:23:02;102337.38;;;7.86;100.00
41898;BME280;27576;53.366;-1.498;2023-02-12T00:25:27;102341.47;;;7.82;100.00
41898;BME280;27576;53.366;-1.498;2023-02-12T00:27:52;102306.25;;;7.68;100.00
41898;BME280;27576;53.366;-1.498;2023-02-12T00:30:18;102304.31;;;7.64;100.00
41898;BME280;27576;53.366;-1.498;2023-02-12T00:32:46;102317.53;;;7.70;100.00
41898;BME280;27576;53.366;-1.498;2023-02-12T00:35:12;102338.31;;;7.88;100.00
41898;BME280;27576;53.366;-1.498;2023-02-12T00:37:37;102338.31;;;7.88;100.00
41898;BME280;27576;53.366;-1.498;2023-02-12T00:40:04;102323.53;;;7.85;100.00
41898;BME280;27576;53.366;-1.498;2023-02-12T00:42:29;102328.81;;;7.87;100.00
41898;BME280;27576;53.366;-1.498;2023-02-12T00:44:55;102330.50;;;7.86;100.00
41898;BME280;27576;53.366;-1.498;2023-02-12T00:47:20;102326.94;;;7.84;100.00
41898;BME280;27576;53.366;-1.498;2023-02-12T00:49:45;102325.16;;;7.83;100.00
41898;BME280;27576;53.366;-1.498;2023-02-12T00:52:11;102287.72;;;7.59;100.00
41898;BME280;27576;53.366;-1.498;2023-02-12T00:54:36;102324.28;;;7.83;100.00
41898;BME280;27576;53.366;-1.498;2023-02-12T00:57:02;102314.66;;;7.80;100.00
41898;BME280;27576;53.366;-1.498;2023-02-12T00:59:27;102315.38;;;7.78;100.00
41898;BME280;27576;53.366;-1.498;2023-02-12T01:01:53;102306.09;;;7.65;100.00
41898;BME280;27576;53.366;-1.498;2023-02-12T01:04:20;102312.47;;;7.72;100.00
41898;BME280;27576;53.366;-1.498;2023-02-12T01:06:46;102286.00;;;7.59;100.00
41898;BME280;27576;53.366;-1.498;2023-02-12T01:09:11;102306.63;;;7.74;100.00
41898;BME280;27576;53.366;-1.498;2023-02-12T01:11:37;102319.84;;;7.80;100.00
41898;BME280;27576;53.366;-1.498;2023-02-12T01:14:03;102323.13;;;7.78;100.00
41898;BME280;27576;53.366;-1.498;2023-02-12T01:16:29;102330.78;;;7.76;100.00
41898;BME280;27576;53.366;-1.498;2023-02-12T01:19:01;102327.31;;;7.76;100.00
41898;BME280;27576;53.366;-1.498;2023-02-12T01:21:30;102315.13;;;7.73;100.00
41898;BME280;27576;53.366;-1.498;2023-02-12T01:23:58;102309.47;;;7.64;100.00
41898;BME280;27576;53.366;-1.498;2023-02-12T01:26:24;102334.00;;;7.72;100.00
41898;BME280;27576;53.366;-1.498;2023-02-12T01:28:52;102327.06;;;7.71;100.00
41898;BME280;27576;53.366;-1.498;2023-02-12T01:31:21;102319.16;;;7.68;100.00
41898;BME280;27576;53.366;-1.498;2023-02-12T01:33:47;102313.66;;;7.62;100.00
41898;BME280;27576;53.366;-1.498;2023-02-12T01:36:13;102314.63;;;7.64;100.00
41898;BME280;27576;53.366;-1.498;2023-02-12T01:38:39;102307.53;;;7.60;100.00
41898;BME280;27576;53.366;-1.498;2023-02-12T01:41:09;102305.59;;;7.56;100.00
41898;BME280;27576;53.366;-1.498;2023-02-12T01:43:36;102290.31;;;7.44;100.00
41898;BME280;27576;53.366;-1.498;2023-02-12T01:46:02;102324.88;;;7.62;100.00
41898;BME280;27576;53.366;-1.498;2023-02-12T01:48:44;102327.28;;;7.59;100.00
41898;BME280;27576;53.366;-1.498;2023-02-12T01:51:14;102322.84;;;7.57;100.00
41898;BME280;27576;53.366;-1.498;2023-02-12T01:53:46;102329.75;;;7.58;100.00
41898;BME280;27576;53.366;-1.498;2023-02-12T01:56:13;102257.91;;;7.18;100.00
41898;BME280;27576;53.366;-1.498;2023-02-12T01:58:41;102289.25;;;7.41;100.00
41898;BME280;27576;53.366;-1.498;2023-02-12T02:01:12;102315.91;;;7.56;100.00
41898;BME280;27576;53.366;-1.498;2023-02-12T02:03:38;102289.19;;;7.39;100.00
41898;BME280;27576;53.366;-1.498;2023-02-12T02:06:12;102320.25;;;7.57;100.00
41898;BME280;27576;53.366;-1.498;2023-02-12T02:08:39;102306.75;;;7.46;100.00
41898;BME280;27576;53.366;-1.498;2023-02-12T02:11:05;102303.91;;;7.42;100.00
41898;BME280;27576;53.366;-1.498;2023-02-12T02:13:51;102327.81;;;7.54;100.00
41898;BME280;27576;53.366;-1.498;2023-02-12T02:16:36;102302.59;;;7.33;100.00
41898;BME280;27576;53.366;-1.498;2023-02-12T02:19:38;102329.44;;;7.52;100.00
41898;BME280;27576;53.366;-1.498;2023-02-12T02:31:17;102301.66;;;7.31;100.00
41898;BME280;27576;53.366;-1.498;2023-02-12T02:39:16;102329.34;;;7.50;100.00
41898;BME280;27576;53.366;-1.498;2023-02-12T02:41:48;102318.94;;;7.49;100.00
41898;BME280;27576;53.366;-1.498;2023-02-12T02:44:27;102307.38;;;7.42;100.00
41898;BME280;27576;53.366;-1.498;2023-02-12T02:46:57;102320.38;;;7.44;100.00
41898;BME280;27576;53.366;-1.498;2023-02-12T02:49:26;102310.06;;;7.44;100.00
41898;BME280;27576;53.366;-1.498;2023-02-12T02:51:59;102310.06;;;7.44;100.00
41898;BME280;27576;53.366;-1.498;2023-02-12T02:54:38;102286.81;;;7.27;100.00
41898;BME280;27576;53.366;-1.498;2023-02-12T02:57:12;102274.38;;;7.20;100.00
41898;BME280;27576;53.366;-1.498;2023-02-12T02:59:44;102318.59;;;7.43;100.00
41898;BME280;27576;53.366;-1.498;2023-02-12T03:02:17;102322.84;;;7.42;100.00
41898;BME280;27576;53.366;-1.498;2023-02-12T03:04:49;102308.00;;;7.38;100.00
41898;BME280;27576;53.366;-1.498;2023-02-12T03:07:24;102308.13;;;7.40;100.00
41898;BME280;27576;53.366;-1.498;2023-02-12T03:12:36;102313.28;;;7.40;100.00
41898;BME280;27576;53.366;-1.498;2023-02-12T03:15:19;102314.69;;;7.34;100.00
41898;BME280;27576;53.366;-1.498;2023-02-12T03:17:48;102313.81;;;7.34;100.00
41898;BME280;27576;53.366;-1.498;2023-02-12T03:20:35;102321.03;;;7.40;100.00
41898;BME280;27576;53.366;-1.498;2023-02-12T03:23:06;102313.97;;;7.37;100.00
41898;BME280;27576;53.366;-1.498;2023-02-12T03:25:37;102246.03;;;6.91;100.00
41898;BME280;27576;53.366;-1.498;2023-02-12T03:28:31;102317.19;;;7.33;100.00
41898;BME280;27576;53.366;-1.498;2023-02-12T03:31:11;102314.53;;;7.31;100.00
41898;BME280;27576;53.366;-1.498;2023-02-12T03:34:06;102225.84;;;6.83;100.00
41898;BME280;27576;53.366;-1.498;2023-02-12T03:39:15;102310.16;;;7.30;100.00
41898;BME280;27576;53.366;-1.498;2023-02-12T03:41:48;102263.69;;;6.99;100.00
41898;BME280;27576;53.366;-1.498;2023-02-12T03:44:45;102304.03;;;7.28;100.00
41898;BME280;27576;53.366;-1.498;2023-02-12T03:47:43;102312.66;;;7.29;100.00
41898;BME280;27576;53.366;-1.498;2023-02-12T03:50:16;102307.06;;;7.21;100.00
41898;BME280;27576;53.366;-1.498;2023-02-12T03:52:45;102286.72;;;7.11;100.00
41898;BME280;27576;53.366;-1.498;2023-02-12T03:55:13;102316.69;;;7.24;100.00
41898;BME280;27576;53.366;-1.498;2023-02-12T03:57:43;102304.25;;;7.17;100.00
41898;BME280;27576;53.366;-1.498;2023-02-12T04:00:17;102311.41;;;7.22;100.00
41898;BME280;27576;53.366;-1.498;2023-02-12T04:02:43;102308.84;;;7.22;100.00
41898;BME280;27576;53.366;-1.498;2023-02-12T04:05:25;102274.00;;;6.99;100.00
41898;BME280;27576;53.366;-1.498;2023-02-12T04:07:53;102318.28;;;7.22;100.00
41898;BME280;27576;53.366;-1.498;2023-02-12T04:10:37;102319.97;;;7.21;100.00
41898;BME280;27576;53.366;-1.498;2023-02-12T04:13:23;102327.69;;;7.21;100.00
41898;BME280;27576;53.366;-1.498;2023-02-12T04:16:23;102324.25;;;7.21;100.00
41898;BME280;27576;53.366;-1.498;2023-02-12T04:18:50;102305.50;;;7.08;100.00
41898;BME280;27576;53.366;-1.498;2023-02-12T04:26:36;102322.19;;;7.15;100.00
41898;BME280;27576;53.366;-1.498;2023-02-12T04:32:15;102322.34;;;7.18;100.00
41898;BME280;27576;53.366;-1.498;2023-02-12T04:34:49;102286.75;;;6.96;100.00
41898;BME280;27576;53.366;-1.498;2023-02-12T04:37:26;102286.81;;;6.98;100.00
41898;BME280;27576;53.366;-1.498;2023-02-12T04:39:55;102277.06;;;6.92;100.00
41898;BME280;27576;53.366;-1.498;2023-02-12T04:42:22;102323.97;;;7.16;100.00
41898;BME280;27576;53.366;-1.498;2023-02-12T04:44:47;102327.25;;;7.13;100.00
41898;BME280;27576;53.366;-1.498;2023-02-12T04:47:14;102328.94;;;7.13;100.00
41898;BME280;27576;53.366;-1.498;2023-02-12T04:49:41;102327.19;;;7.12;100.00
41898;BME280;27576;53.366;-1.498;2023-02-12T04:52:07;102335.81;;;7.12;100.00
41898;BME280;27576;53.366;-1.498;2023-02-12T04:54:34;102336.50;;;7.10;100.00
41898;BME280;27576;53.366;-1.498;2023-02-12T04:56:59;102330.38;;;7.08;100.00
41898;BME280;27576;53.366;-1.498;2023-02-12T04:59:25;102312.53;;;6.96;100.00
41898;BME280;27576;53.366;-1.498;2023-02-12T05:01:50;102309.84;;;6.95;100.00
41898;BME280;27576;53.366;-1.498;2023-02-12T05:04:16;102296.44;;;6.85;100.00
41898;BME280;27576;53.366;-1.498;2023-02-12T05:06:43;102320.84;;;7.07;100.00
41898;BME280;27576;53.366;-1.498;2023-02-12T05:09:15;102288.50;;;6.82;100.00
41898;BME280;27576;53.366;-1.498;2023-02-12T05:11:41;102329.50;;;7.07;100.00
41898;BME280;27576;53.366;-1.498;2023-02-12T05:14:07;102326.00;;;7.07;100.00
41898;BME280;27576;53.366;-1.498;2023-02-12T05:16:32;102328.50;;;7.05;100.00
41898;BME280;27576;53.366;-1.498;2023-02-12T05:18:57;102331.09;;;7.05;100.00
41898;BME280;27576;53.366;-1.498;2023-02-12T05:21:23;102325.03;;;7.05;100.00
41898;BME280;27576;53.366;-1.498;2023-02-12T05:23:48;102304.69;;;6.95;100.00
41898;BME280;27576;53.366;-1.498;2023-02-12T05:26:16;102319.78;;;7.03;100.00
41898;BME280;27576;53.366;-1.498;2023-02-12T05:28:42;102313.75;;;7.03;100.00
41898;BME280;27576;53.366;-1.498;2023-02-12T05:31:10;102298.75;;;6.96;100.00
41898;BME280;27576;53.366;-1.498;2023-02-12T05:33:41;102317.13;;;7.02;100.00
41898;BME280;27576;53.366;-1.498;2023-02-12T05:36:09;102321.31;;;7.00;100.00
41898;BME280;27576;53.366;-1.498;2023-02-12T05:38:35;102294.28;;;6.78;100.00
41898;BME280;27576;53.366;-1.498;2023-02-12T05:41:06;102317.56;;;6.95;100.00
41898;BME280;27576;53.366;-1.498;2023-02-12T05:43:32;102304.16;;;6.85;100.00
41898;BME280;27576;53.366;-1.498;2023-02-12T05:46:01;102308.88;;;6.93;100.00
41898;BME280;27576;53.366;-1.498;2023-02-12T05:48:28;102299.97;;;6.87;100.00
41898;BME280;27576;53.366;-1.498;2023-02-12T05:50:53;102308.00;;;6.92;100.00
41898;BME280;27576;53.366;-1.498;2023-02-12T05:53:19;102283.91;;;6.77;100.00
41898;BME280;27576;53.366;-1.498;2023-02-12T05:55:45;102303.34;;;6.86;100.00
41898;BME280;27576;53.366;-1.498;2023-02-12T05:58:10;102315.09;;;6.96;100.00
41898;BME280;27576;53.366;-1.498;2023-02-12T06:00:36;102277.69;;;6.73;100.00
41898;BME280;27576;53.366;-1.498;2023-02-12T06:03:02;102314.03;;;6.93;100.00
41898;BME280;27576;53.366;-1.498;2023-02-12T06:05:27;102307.19;;;6.93;100.00
41898;BME280;27576;53.366;-1.498;2023-02-12T06:07:52;102297.38;;;6.87;100.00
41898;BME280;27576;53.366;-1.498;2023-02-12T06:10:18;102281.22;;;6.75;100.00
41898;BME280;27576;53.366;-1.498;2023-02-12T06:12:43;102259.00;;;6.62;100.00
41898;BME280;27576;53.366;-1.498;2023-02-12T06:15:08;102269.78;;;6.70;100.00
41898;BME280;27576;53.366;-1.498;2023-02-12T06:17:34;102293.03;;;6.86;100.00
41898;BME280;27576;53.366;-1.498;2023-02-12T06:19:59;102257.59;;;6.68;100.00
41898;BME280;27576;53.366;-1.498;2023-02-12T06:22:26;102296.88;;;6.93;100.00
41898;BME280;27576;53.366;-1.498;2023-02-12T06:24:51;102308.88;;;6.93;100.00
41898;BME280;27576;53.366;-1.498;2023-02-12T06:27:17;102302.72;;;6.91;100.00
41898;BME280;27576;53.366;-1.498;2023-02-12T06:29:42;102285.84;;;6.81;100.00
41898;BME280;27576;53.366;-1.498;2023-02-12T06:32:08;102308.00;;;6.92;100.00
41898;BME280;27576;53.366;-1.498;2023-02-12T06:34:34;102301.50;;;6.84;100.00
41898;BME280;27576;53.366;-1.498;2023-02-12T06:36:59;102309.56;;;6.90;100.00
41898;BME280;27576;53.366;-1.498;2023-02-12T06:39:25;102299.81;;;6.84;100.00
41898;BME280;27576;53.366;-1.498;2023-02-12T06:41:50;102288.19;;;6.76;100.00
41898;BME280;27576;53.366;-1.498;2023-02-12T06:44:16;102284.25;;;6.68;100.00
41898;BME280;27576;53.366;-1.498;2023-02-12T06:46:41;102289.69;;;6.73;100.00
41898;BME280;27576;53.366;-1.498;2023-02-12T06:49:06;102325.03;;;6.90;100.00
41898;BME280;27576;53.366;-1.498;2023-02-12T06:51:32;102312.78;;;6.86;100.00
41898;BME280;27576;53.366;-1.498;2023-02-12T06:53:58;102315.44;;;6.87;100.00
41898;BME280;27576;53.366;-1.498;2023-02-12T06:56:24;102321.50;;;6.88;100.00
41898;BME280;27576;53.366;-1.498;2023-02-12T06:58:58;102322.38;;;6.88;100.00
41898;BME280;27576;53.366;-1.498;2023-02-12T07:01:27;102322.38;;;6.88;100.00
41898;BME280;27576;53.366;-1.498;2023-02-12T07:03:57;102290.38;;;6.70;100.00
41898;BME280;27576;53.366;-1.498;2023-02-12T07:06:23;102285.03;;;6.67;100.00
41898;BME280;27576;53.366;-1.498;2023-02-12T07:08:49;102288.41;;;6.66;100.00
41898;BME280;27576;53.366;-1.498;2023-02-12T07:11:15;102318.63;;;6.83;100.00
41898;BME280;27576;53.366;-1.498;2023-02-12T07:13:41;102297.50;;;6.74;100.00
41898;BME280;27576;53.366;-1.498;2023-02-12T07:16:11;102331.00;;;6.89;100.00
41898;BME280;27576;53.366;-1.498;2023-02-12T07:18:37;102304.34;;;6.74;100.00
41898;BME280;27576;53.366;-1.498;2023-02-12T07:21:04;102326.72;;;6.89;100.00
41898;BME280;27576;53.366;-1.498;2023-02-12T07:23:30;102323.78;;;6.83;100.00
41898;BME280;27576;53.366;-1.498;2023-02-12T07:26:00;102305.28;;;6.76;100.00
41898;BME280;27576;53.366;-1.498;2023-02-12T07:28:26;102317.66;;;6.81;100.00
41898;BME280;27576;53.366;-1.498;2023-02-12T07:30:52;102328.22;;;6.86;100.00
41898;BME280;27576;53.366;-1.498;2023-02-12T07:33:18;102321.31;;;6.85;100.00
41898;BME280;27576;53.366;-1.498;2023-02-12T07:35:43;102328.16;;;6.84;100.00
41898;BME280;27576;53.366;-1.498;2023-02-12T07:38:09;102319.88;;;6.75;100.00
41898;BME280;27576;53.366;-1.498;2023-02-12T07:40:34;102291.81;;;6.65;100.00
41898;BME280;27576;53.366;-1.498;2023-02-12T07:43:01;102302.28;;;6.68;100.00
41898;BME280;27576;53.366;-1.498;2023-02-12T07:45:26;102290.72;;;6.61;100.00
41898;BME280;27576;53.366;-1.498;2023-02-12T07:47:51;102307.44;;;6.68;100.00
41898;BME280;27576;53.366;-1.498;2023-02-12T07:50:17;102302.00;;;6.63;100.00
41898;BME280;27576;53.366;-1.498;2023-02-12T07:52:45;102337.47;;;6.82;100.00
41898;BME280;27576;53.366;-1.498;2023-02-12T07:55:12;102320.59;;;6.73;100.00
41898;BME280;27576;53.366;-1.498;2023-02-12T07:57:38;102333.13;;;6.81;100.00
41898;BME280;27576;53.366;-1.498;2023-02-12T08:00:04;102332.13;;;6.79;100.00
41898;BME280;27576;53.366;-1.498;2023-02-12T08:02:29;102323.25;;;6.74;100.00
41898;BME280;27576;53.366;-1.498;2023-02-12T08:04:56;102339.25;;;6.83;100.00
41898;BME280;27576;53.366;-1.498;2023-02-12T08:07:22;102327.53;;;6.74;100.00
41898;BME280;27576;53.366;-1.498;2023-02-12T08:09:47;102336.50;;;6.80;100.00
41898;BME280;27576;53.366;-1.498;2023-02-12T08:12:12;102295.78;;;6.60;100.00
41898;BME280;27576;53.366;-1.498;2023-02-12T08:14:38;102355.69;;;6.85;100.00
41898;BME280;27576;53.366;-1.498;2023-02-12T08:17:03;102354.88;;;6.86;100.00
41898;BME280;27576;53.366;-1.498;2023-02-12T08:19:28;102318.53;;;6.67;100.00
41898;BME280;27576;53.366;-1.498;2023-02-12T08:21:54;102344.31;;;6.82;100.00
41898;BME280;27576;53.366;-1.498;2023-02-12T08:24:21;102340.84;;;6.81;100.00
41898;BME280;27576;53.366;-1.498;2023-02-12T08:26:47;102352.50;;;6.89;100.00
41898;BME280;27576;53.366;-1.498;2023-02-12T08:29:16;102352.69;;;6.93;100.00
41898;BME280;27576;53.366;-1.498;2023-02-12T08:31:46;102359.69;;;6.95;100.00
41898;BME280;27576;53.366;-1.498;2023-02-12T08:34:21;102331.44;;;6.82;100.00
41898;BME280;27576;53.366;-1.498;2023-02-12T08:36:49;102314.72;;;6.75;100.00
41898;BME280;27576;53.366;-1.498;2023-02-12T08:39:15;102350.44;;;6.99;100.00
41898;BME280;27576;53.366;-1.498;2023-02-12T08:41:41;102348.88;;;7.01;100.00
41898;BME280;27576;53.366;-1.498;2023-02-12T08:44:08;102336.50;;;6.95;100.00
41898;BME280;27576;53.366;-1.498;2023-02-12T08:46:35;102347.38;;;7.04;100.00
41898;BME280;27576;53.366;-1.498;2023-02-12T08:49:03;102321.56;;;6.89;100.00
41898;BME280;27576;53.366;-1.498;2023-02-12T08:51:31;102349.22;;;7.07;100.00
41898;BME280;27576;53.366;-1.498;2023-02-12T08:54:03;102345.03;;;7.09;100.00
41898;BME280;27576;53.366;-1.498;2023-02-12T08:56:31;102342.47;;;7.09;100.00
41898;BME280;27576;53.366;-1.498;2023-02-12T08:58:58;102352.84;;;7.10;100.00
41898;BME280;27576;53.366;-1.498;2023-02-12T09:01:25;102346.00;;;7.11;100.00
41898;BME280;27576;53.366;-1.498;2023-02-12T09:03:51;102331.78;;;7.03;100.00
41898;BME280;27576;53.366;-1.498;2023-02-12T09:06:18;102355.53;;;7.12;100.00
41898;BME280;27576;53.366;-1.498;2023-02-12T09:08:44;102351.28;;;7.12;100.00
41898;BME280;27576;53.366;-1.498;2023-02-12T09:11:12;102309.84;;;6.95;100.00
41898;BME280;27576;53.366;-1.498;2023-02-12T09:13:40;102320.59;;;7.02;100.00
41898;BME280;27576;53.366;-1.498;2023-02-12T09:16:06;102327.81;;;7.08;100.00
41898;BME280;27576;53.366;-1.498;2023-02-12T09:18:32;102341.41;;;7.20;100.00
41898;BME280;27576;53.366;-1.498;2023-02-12T09:21:06;102333.22;;;7.12;100.00
41898;BME280;27576;53.366;-1.498;2023-02-12T09:23:31;102318.47;;;7.10;100.00
41898;BME280;27576;53.366;-1.498;2023-02-12T09:25:57;102333.66;;;7.20;100.00
41898;BME280;27576;53.366;-1.498;2023-02-12T09:28:23;102345.19;;;7.27;100.00
41898;BME280;27576;53.366;-1.498;2023-02-12T09:30:48;102325.56;;;7.14;100.00
41898;BME280;27576;53.366;-1.498;2023-02-12T09:33:14;102343.69;;;7.30;100.00
41898;BME280;27576;53.366;-1.498;2023-02-12T09:35:40;102333.56;;;7.33;100.00
41898;BME280;27576;53.366;-1.498;2023-02-12T09:38:06;102299.59;;;7.11;100.00
41898;BME280;27576;53.366;-1.498;2023-02-12T09:40:43;102338.88;;;7.36;100.00
41898;BME280;27576;53.366;-1.498;2023-02-12T09:45:48;102330.97;;;7.33;100.00
41898;BME280;27576;53.366;-1.498;2023-02-12T09:51:02;102339.59;;;7.49;100.00
41898;BME280;27576;53.366;-1.498;2023-02-12T09:53:31;102310.59;;;7.38;100.00
41898;BME280;27576;53.366;-1.498;2023-02-12T09:55:59;102331.13;;;7.51;100.00
41898;BME280;27576;53.366;-1.498;2023-02-12T09:58:34;102334.78;;;7.55;100.00
41898;BME280;27576;53.366;-1.498;2023-02-12T10:01:17;102336.72;;;7.59;100.00
41898;BME280;27576;53.366;-1.498;2023-02-12T10:03:45;102328.16;;;7.60;100.00
41898;BME280;27576;53.366;-1.498;2023-02-12T10:06:18;102312.34;;;7.54;100.00
41898;BME280;27576;53.366;-1.498;2023-02-12T10:09:06;102336.59;;;7.72;100.00
41898;BME280;27576;53.366;-1.498;2023-02-12T10:12:11;102330.78;;;7.76;100.00
41898;BME280;27576;53.366;-1.498;2023-02-12T10:17:39;102331.16;;;7.82;100.00
41898;BME280;27576;53.366;-1.498;2023-02-12T10:28:00;102310.84;;;7.74;100.00
41898;BME280;27576;53.366;-1.498;2023-02-12T10:30:55;102340.19;;;7.91;100.00
41898;BME280;27576;53.366;-1.498;2023-02-12T10:33:34;102335.75;;;7.88;100.00
41898;BME280;27576;53.366;-1.498;2023-02-12T10:38:55;102341.97;;;7.92;100.00
41898;BME280;27576;53.366;-1.498;2023-02-12T10:41:24;102341.78;;;7.88;100.00
41898;BME280;27576;53.366;-1.498;2023-02-12T10:43:52;102315.06;;;7.72;100.00
41898;BME280;27576;53.366;-1.498;2023-02-12T10:46:17;102339.84;;;7.84;100.00
41898;BME280;27576;53.366;-1.498;2023-02-12T10:48:45;102344.53;;;7.92;99.35
41898;BME280;27576;53.366;-1.498;2023-02-12T10:57:05;102343.56;;;7.90;96.28
41898;BME280;27576;53.366;-1.498;2023-02-12T10:59:31;102332.97;;;7.85;96.31
41898;BME280;27576;53.366;-1.498;2023-02-12T11:01:57;102315.06;;;7.72;95.65
41898;BME280;27576;53.366;-1.498;2023-02-12T11:07:03;102346.94;;;7.88;91.94
41898;BME280;27576;53.366;-1.498;2023-02-12T11:17:36;102343.91;;;7.96;91.28
41898;BME280;27576;53.366;-1.498;2023-02-12T11:20:18;102353.41;;;7.97;91.13
41898;BME280;27576;53.366;-1.498;2023-02-12T11:25:16;102321.31;;;7.92;91.30
41898;BME280;27576;53.366;-1.498;2023-02-12T11:27:41;102337.28;;;8.01;90.22
41898;BME280;27576;53.366;-1.498;2023-02-12T11:30:11;102338.28;;;8.03;90.91
41898;BME280;27576;53.366;-1.498;2023-02-12T11:32:37;102336.75;;;8.06;91.69
41898;BME280;27576;53.366;-1.498;2023-02-12T11:37:41;102321.00;;;8.02;90.34
41898;BME280;27576;53.366;-1.498;2023-02-12T11:40:20;102307.75;;;7.96;88.30
41898;BME280;27576;53.366;-1.498;2023-02-12T11:42:49;102335.13;;;8.08;87.82
41898;BME280;27576;53.366;-1.498;2023-02-12T11:45:19;102298.00;;;7.90;89.14
41898;BME280;27576;53.366;-1.498;2023-02-12T11:47:46;102332.78;;;8.13;89.17
41898;BME280;27576;53.366;-1.498;2023-02-12T11:50:28;102327.13;;;8.20;92.36
41898;BME280;27576;53.366;-1.498;2023-02-12T11:53:00;102320.44;;;8.24;90.90
41898;BME280;27576;53.366;-1.498;2023-02-12T11:55:30;102321.50;;;8.27;89.42
41898;BME280;27576;53.366;-1.498;2023-02-12T11:58:16;102328.59;;;8.31;89.21
41898;BME280;27576;53.366;-1.498;2023-02-12T12:00:59;102314.31;;;8.22;88.60
41898;BME280;27576;53.366;-1.498;2023-02-12T12:03:35;102328.59;;;8.31;87.33
41898;BME280;27576;53.366;-1.498;2023-02-12T12:08:48;102325.06;;;8.29;87.84
41898;BME280;27576;53.366;-1.498;2023-02-12T12:11:19;102305.34;;;8.15;86.05
41898;BME280;27576;53.366;-1.498;2023-02-12T12:16:43;102302.59;;;8.12;88.29
41898;BME280;27576;53.366;-1.498;2023-02-12T12:19:39;102317.56;;;8.18;88.78
41898;BME280;27576;53.366;-1.498;2023-02-12T12:22:45;102315.69;;;8.15;88.47
41898;BME280;27576;53.366;-1.498;2023-02-12T12:27:56;102287.75;;;8.08;88.03
41898;BME280;27576;53.366;-1.498;2023-02-12T12:33:25;102307.22;;;8.18;88.60
41898;BME280;27576;53.366;-1.498;2023-02-12T12:46:30;102281.81;;;8.25;87.84
41898;BME280;27576;53.366;-1.498;2023-02-12T12:49:12;102266.31;;;8.25;87.72
41898;BME280;27576;53.366;-1.498;2023-02-12T12:57:56;102249.59;;;8.19;86.34
41898;BME280;27576;53.366;-1.498;2023-02-12T13:05:22;102263.88;;;8.12;86.68
41898;BME280;27576;53.366;-1.498;2023-02-12T13:10:47;102258.06;;;8.16;87.13
41898;BME280;27576;53.366;-1.498;2023-02-12T13:13:30;102264.22;;;8.18;86.81
41898;BME280;27576;53.366;-1.498;2023-02-12T13:21:55;102276.94;;;8.15;86.59
41898;BME280;27576;53.366;-1.498;2023-02-12T13:24:39;102268.22;;;8.13;87.20
41898;BME280;27576;53.366;-1.498;2023-02-12T13:27:12;102260.47;;;8.13;87.91
41898;BME280;27576;53.366;-1.498;2023-02-12T13:29:43;102257.81;;;8.11;88.51
41898;BME280;27576;53.366;-1.498;2023-02-12T13:32:28;102214.34;;;7.86;88.83
41898;BME280;27576;53.366;-1.498;2023-02-12T13:34:55;102255.47;;;8.16;87.95
41898;BME280;27576;53.366;-1.498;2023-02-12T13:37:42;102244.09;;;8.12;88.53
41898;BME280;27576;53.366;-1.498;2023-02-12T13:40:17;102237.16;;;8.11;89.18
41898;BME280;27576;53.366;-1.498;2023-02-12T14:03:25;102196.09;;;8.00;88.66
41898;BME280;27576;53.366;-1.498;2023-02-12T14:06:14;102214.97;;;8.15;88.33
41898;BME280;27576;53.366;-1.498;2023-02-12T14:08:46;102222.00;;;8.18;88.42
41898;BME280;27576;53.366;-1.498;2023-02-12T14:11:18;102221.03;;;8.16;87.81
41898;BME280;27576;53.366;-1.498;2023-02-12T14:13:54;102186.75;;;8.02;89.54
41898;BME280;27576;53.366;-1.498;2023-02-12T14:16:40;102215.28;;;8.21;87.55
41898;BME280;27576;53.366;-1.498;2023-02-12T14:22:13;102214.25;;;8.18;87.24
41898;BME280;27576;53.366;-1.498;2023-02-12T14:24:57;102181.28;;;7.96;87.30
41898;BME280;27576;53.366;-1.498;2023-02-12T14:27:32;102176.03;;;7.94;87.41
41898;BME280;27576;53.366;-1.498;2023-02-12T14:30:11;102187.41;;;7.98;88.43
41898;BME280;27576;53.366;-1.498;2023-02-12T14:35:39;102188.59;;;8.04;89.16
41898;BME280;27576;53.366;-1.498;2023-02-12T14:38:55;102200.31;;;8.14;87.78
41898;BME280;27576;53.366;-1.498;2023-02-12T14:47:48;102194.16;;;8.12;87.01
41898;BME280;27576;53.366;-1.498;2023-02-12T14:50:18;102199.56;;;8.17;89.93
41898;BME280;27576;53.366;-1.498;2023-02-12T14:52:51;102179.38;;;8.09;87.71
41898;BME280;27576;53.366;-1.498;2023-02-12T14:55:25;102181.91;;;8.08;87.67
41898;BME280;27576;53.366;-1.498;2023-02-12T14:58:00;102189.97;;;8.14;87.28
41898;BME280;27576;53.366;-1.498;2023-02-12T15:00:30;102196.03;;;8.15;87.51
41898;BME280;27576;53.366;-1.498;2023-02-12T15:03:28;102196.84;;;8.14;88.03
41898;BME280;27576;53.366;-1.498;2023-02-12T15:06:17;102189.97;;;8.14;87.67
41898;BME280;27576;53.366;-1.498;2023-02-12T15:11:21;102171.97;;;8.16;88.31
41898;BME280;27576;53.366;-1.498;2023-02-12T15:13:54;102165.75;;;8.12;87.67
41898;BME280;27576;53.366;-1.498;2023-02-12T15:16:28;102157.72;;;8.06;88.13
41898;BME280;27576;53.366;-1.498;2023-02-12T15:21:31;102165.97;;;8.17;89.14
41898;BME280;27576;53.366;-1.498;2023-02-12T15:24:12;102153.06;;;8.17;88.04
41898;BME280;27576;53.366;-1.498;2023-02-12T15:26:46;102153.06;;;8.17;88.85
41898;BME280;27576;53.366;-1.498;2023-02-12T15:29:38;102155.00;;;8.21;89.18